sensor_id;sensor_type;location;lat;lon;timestamp;temperature;humidity
52181;DHT22;38158;53.338;6.514;2023-12-28T00:00:27;8.80;99.90
52181;DHT22;38158;53.338;6.514;2023-12-28T00:02:52;8.90;99.90
52181;DHT22;38158;53.338;6.514;2023-12-28T00:05:18;8.90;99.90
52181;DHT22;38158;53.338;6.514;2023-12-28T00:07:44;8.90;99.90
52181;DHT22;38158;53.338;6.514;2023-12-28T00:10:10;9.20;99.90
52181;DHT22;38158;53.338;6.514;2023-12-28T00:12:35;8.90;99.90
52181;DHT22;38158;53.338;6.514;2023-12-28T00:15:01;8.90;99.90
52181;DHT22;38158;53.338;6.514;2023-12-28T00:17:27;8.90;99.90
52181;DHT22;38158;53.338;6.514;2023-12-28T00:19:52;8.90;99.90
52181;DHT22;38158;53.338;6.514;2023-12-28T00:22:18;8.90;99.90
52181;DHT22;38158;53.338;6.514;2023-12-28T00:24:44;8.80;99.90
52181;DHT22;38158;53.338;6.514;2023-12-28T00:27:09;8.80;99.90
52181;DHT22;38158;53.338;6.514;2023-12-28T00:29:35;8.80;99.90
52181;DHT22;38158;53.338;6.514;2023-12-28T00:32:05;9.10;99.90
52181;DHT22;38158;53.338;6.514;2023-12-28T00:34:31;8.80;99.90
52181;DHT22;38158;53.338;6.514;2023-12-28T00:36:56;8.90;99.90
52181;DHT22;38158;53.338;6.514;2023-12-28T00:39:22;8.90;99.90
52181;DHT22;38158;53.338;6.514;2023-12-28T00:41:48;9.00;99.90
52181;DHT22;38158;53.338;6.514;2023-12-28T00:44:13;8.90;99.90
52181;DHT22;38158;53.338;6.514;2023-12-28T00:46:39;8.90;99.90
52181;DHT22;38158;53.338;6.514;2023-12-28T00:49:05;8.90;99.90
52181;DHT22;38158;53.338;6.514;2023-12-28T00:51:30;9.20;99.90
52181;DHT22;38158;53.338;6.514;2023-12-28T00:53:56;8.90;99.90
52181;DHT22;38158;53.338;6.514;2023-12-28T00:56:22;8.90;99.90
52181;DHT22;38158;53.338;6.514;2023-12-28T00:58:48;9.00;99.90
52181;DHT22;38158;53.338;6.514;2023-12-28T01:01:13;9.10;99.90
52181;DHT22;38158;53.338;6.514;2023-12-28T01:03:39;9.10;99.90
52181;DHT22;38158;53.338;6.514;2023-12-28T01:06:05;9.10;99.90
52181;DHT22;38158;53.338;6.514;2023-12-28T01:08:32;9.10;99.90
52181;DHT22;38158;53.338;6.514;2023-12-28T01:10:59;9.00;99.90
52181;DHT22;38158;53.338;6.514;2023-12-28T01:13:26;9.20;99.90
52181;DHT22;38158;53.338;6.514;2023-12-28T01:15:51;9.20;99.90
52181;DHT22;38158;53.338;6.514;2023-12-28T01:18:17;9.20;99.90
52181;DHT22;38158;53.338;6.514;2023-12-28T01:20:42;9.60;99.90
52181;DHT22;38158;53.338;6.514;2023-12-28T01:23:08;9.20;99.90
52181;DHT22;38158;53.338;6.514;2023-12-28T01:25:34;9.10;99.90
52181;DHT22;38158;53.338;6.514;2023-12-28T01:28:01;9.40;99.90
52181;DHT22;38158;53.338;6.514;2023-12-28T01:30:26;9.10;99.90
52181;DHT22;38158;53.338;6.514;2023-12-28T01:32:53;9.10;99.90
52181;DHT22;38158;53.338;6.514;2023-12-28T01:35:18;9.10;99.90
52181;DHT22;38158;53.338;6.514;2023-12-28T01:37:44;9.20;99.90
52181;DHT22;38158;53.338;6.514;2023-12-28T01:40:10;9.10;99.90
52181;DHT22;38158;53.338;6.514;2023-12-28T01:42:35;9.10;99.90
52181;DHT22;38158;53.338;6.514;2023-12-28T01:45:02;9.10;99.90
52181;DHT22;38158;53.338;6.514;2023-12-28T01:47:28;9.10;99.90
52181;DHT22;38158;53.338;6.514;2023-12-28T01:49:55;9.10;99.90
52181;DHT22;38158;53.338;6.514;2023-12-28T01:52:21;9.10;99.90
52181;DHT22;38158;53.338;6.514;2023-12-28T01:54:47;9.00;99.90
52181;DHT22;38158;53.338;6.514;2023-12-28T01:57:13;9.00;99.90
52181;DHT22;38158;53.338;6.514;2023-12-28T01:59:40;9.00;99.90
52181;DHT22;38158;53.338;6.514;2023-12-28T02:02:07;9.00;99.90
52181;DHT22;38158;53.338;6.514;2023-12-28T02:04:33;8.90;99.90
52181;DHT22;38158;53.338;6.514;2023-12-28T02:07:00;9.00;99.90
52181;DHT22;38158;53.338;6.514;2023-12-28T02:09:26;9.10;99.90
52181;DHT22;38158;53.338;6.514;2023-12-28T02:11:53;9.00;99.90
52181;DHT22;38158;53.338;6.514;2023-12-28T02:14:19;9.00;99.90
52181;DHT22;38158;53.338;6.514;2023-12-28T02:16:50;9.30;99.90
52181;DHT22;38158;53.338;6.514;2023-12-28T02:19:31;9.00;99.90
52181;DHT22;38158;53.338;6.514;2023-12-28T02:21:59;9.00;99.90
52181;DHT22;38158;53.338;6.514;2023-12-28T02:24:25;9.00;99.90
52181;DHT22;38158;53.338;6.514;2023-12-28T02:26:50;9.00;99.90
52181;DHT22;38158;53.338;6.514;2023-12-28T02:29:16;9.00;99.90
52181;DHT22;38158;53.338;6.514;2023-12-28T02:31:49;9.00;99.90
52181;DHT22;38158;53.338;6.514;2023-12-28T02:34:32;9.00;99.90
52181;DHT22;38158;53.338;6.514;2023-12-28T02:37:01;8.90;99.90
52181;DHT22;38158;53.338;6.514;2023-12-28T02:39:29;8.90;99.90
52181;DHT22;38158;53.338;6.514;2023-12-28T02:41:55;8.90;99.90
52181;DHT22;38158;53.338;6.514;2023-12-28T02:44:21;8.90;99.90
52181;DHT22;38158;53.338;6.514;2023-12-28T02:46:47;8.90;99.90
52181;DHT22;38158;53.338;6.514;2023-12-28T02:49:13;8.90;99.90
52181;DHT22;38158;53.338;6.514;2023-12-28T02:51:38;8.90;99.90
52181;DHT22;38158;53.338;6.514;2023-12-28T02:54:04;8.80;99.90
52181;DHT22;38158;53.338;6.514;2023-12-28T02:56:30;8.90;99.90
52181;DHT22;38158;53.338;6.514;2023-12-28T02:58:57;9.10;99.90
52181;DHT22;38158;53.338;6.514;2023-12-28T03:01:23;9.00;99.90
52181;DHT22;38158;53.338;6.514;2023-12-28T03:03:48;8.80;99.90
52181;DHT22;38158;53.338;6.514;2023-12-28T03:06:14;8.80;99.90
52181;DHT22;38158;53.338;6.514;2023-12-28T03:08:40;8.80;99.90
52181;DHT22;38158;53.338;6.514;2023-12-28T03:11:05;8.90;99.90
52181;DHT22;38158;53.338;6.514;2023-12-28T03:13:31;8.90;99.90
52181;DHT22;38158;53.338;6.514;2023-12-28T03:15:57;8.90;99.90
52181;DHT22;38158;53.338;6.514;2023-12-28T03:18:23;8.90;99.90
52181;DHT22;38158;53.338;6.514;2023-12-28T03:20:49;8.90;99.90
52181;DHT22;38158;53.338;6.514;2023-12-28T03:23:14;9.00;99.90
52181;DHT22;38158;53.338;6.514;2023-12-28T03:25:40;9.00;99.90
52181;DHT22;38158;53.338;6.514;2023-12-28T03:28:06;9.00;99.90
52181;DHT22;38158;53.338;6.514;2023-12-28T03:30:32;9.10;99.90
52181;DHT22;38158;53.338;6.514;2023-12-28T03:32:57;9.10;99.90
52181;DHT22;38158;53.338;6.514;2023-12-28T03:35:23;9.20;99.90
52181;DHT22;38158;53.338;6.514;2023-12-28T03:37:48;9.20;99.90
52181;DHT22;38158;53.338;6.514;2023-12-28T03:40:14;9.20;99.90
52181;DHT22;38158;53.338;6.514;2023-12-28T03:42:40;9.20;99.90
52181;DHT22;38158;53.338;6.514;2023-12-28T03:45:06;9.50;99.90
52181;DHT22;38158;53.338;6.514;2023-12-28T03:47:32;9.30;99.90
52181;DHT22;38158;53.338;6.514;2023-12-28T03:49:58;9.30;99.90
52181;DHT22;38158;53.338;6.514;2023-12-28T03:52:27;9.40;99.90
52181;DHT22;38158;53.338;6.514;2023-12-28T03:54:55;9.40;99.90
52181;DHT22;38158;53.338;6.514;2023-12-28T03:57:21;9.40;99.90
52181;DHT22;38158;53.338;6.514;2023-12-28T03:59:47;9.40;99.90
52181;DHT22;38158;53.338;6.514;2023-12-28T04:02:13;9.50;99.90
52181;DHT22;38158;53.338;6.514;2023-12-28T04:04:39;9.50;99.90
52181;DHT22;38158;53.338;6.514;2023-12-28T04:07:05;9.50;99.90
52181;DHT22;38158;53.338;6.514;2023-12-28T04:09:33;9.50;99.90
52181;DHT22;38158;53.338;6.514;2023-12-28T04:11:59;9.60;99.90
52181;DHT22;38158;53.338;6.514;2023-12-28T04:14:24;9.50;99.90
52181;DHT22;38158;53.338;6.514;2023-12-28T04:16:50;9.60;99.90
52181;DHT22;38158;53.338;6.514;2023-12-28T04:19:16;9.60;99.90
52181;DHT22;38158;53.338;6.514;2023-12-28T04:21:44;9.60;99.90
52181;DHT22;38158;53.338;6.514;2023-12-28T04:24:10;9.70;99.90
52181;DHT22;38158;53.338;6.514;2023-12-28T04:26:36;9.60;99.90
52181;DHT22;38158;53.338;6.514;2023-12-28T04:29:02;9.60;99.90
52181;DHT22;38158;53.338;6.514;2023-12-28T04:31:27;9.70;99.90
52181;DHT22;38158;53.338;6.514;2023-12-28T04:33:53;9.70;99.90
52181;DHT22;38158;53.338;6.514;2023-12-28T04:36:19;9.70;99.90
52181;DHT22;38158;53.338;6.514;2023-12-28T04:38:45;9.80;99.90
52181;DHT22;38158;53.338;6.514;2023-12-28T04:41:10;9.80;99.90
52181;DHT22;38158;53.338;6.514;2023-12-28T04:43:38;9.80;99.90
52181;DHT22;38158;53.338;6.514;2023-12-28T04:46:04;9.80;99.90
52181;DHT22;38158;53.338;6.514;2023-12-28T04:48:30;9.90;99.90
52181;DHT22;38158;53.338;6.514;2023-12-28T04:50:56;9.80;99.90
52181;DHT22;38158;53.338;6.514;2023-12-28T04:53:22;9.90;99.90
52181;DHT22;38158;53.338;6.514;2023-12-28T04:55:47;9.80;99.90
52181;DHT22;38158;53.338;6.514;2023-12-28T04:58:13;9.80;99.90
52181;DHT22;38158;53.338;6.514;2023-12-28T05:00:39;10.00;99.90
52181;DHT22;38158;53.338;6.514;2023-12-28T05:03:05;9.80;99.90
52181;DHT22;38158;53.338;6.514;2023-12-28T05:05:31;9.80;99.90
52181;DHT22;38158;53.338;6.514;2023-12-28T05:07:58;9.80;99.90
52181;DHT22;38158;53.338;6.514;2023-12-28T05:10:23;9.80;99.90
52181;DHT22;38158;53.338;6.514;2023-12-28T05:12:49;9.80;99.90
52181;DHT22;38158;53.338;6.514;2023-12-28T05:15:14;9.80;99.90
52181;DHT22;38158;53.338;6.514;2023-12-28T05:17:41;9.80;99.90
52181;DHT22;38158;53.338;6.514;2023-12-28T05:20:07;9.80;99.90
52181;DHT22;38158;53.338;6.514;2023-12-28T05:22:33;9.80;99.90
52181;DHT22;38158;53.338;6.514;2023-12-28T05:24:58;9.80;99.90
52181;DHT22;38158;53.338;6.514;2023-12-28T05:27:24;9.80;99.90
52181;DHT22;38158;53.338;6.514;2023-12-28T05:29:50;9.80;99.90
52181;DHT22;38158;53.338;6.514;2023-12-28T05:32:15;9.80;99.90
52181;DHT22;38158;53.338;6.514;2023-12-28T05:34:41;9.80;99.90
52181;DHT22;38158;53.338;6.514;2023-12-28T05:37:07;9.80;99.90
52181;DHT22;38158;53.338;6.514;2023-12-28T05:39:33;9.90;99.90
52181;DHT22;38158;53.338;6.514;2023-12-28T05:41:58;9.80;99.90
52181;DHT22;38158;53.338;6.514;2023-12-28T05:44:24;9.80;99.90
52181;DHT22;38158;53.338;6.514;2023-12-28T05:46:50;9.80;99.90
52181;DHT22;38158;53.338;6.514;2023-12-28T05:49:17;10.00;99.90
52181;DHT22;38158;53.338;6.514;2023-12-28T05:51:42;9.80;99.90
52181;DHT22;38158;53.338;6.514;2023-12-28T05:54:08;9.80;99.90
52181;DHT22;38158;53.338;6.514;2023-12-28T05:56:34;9.90;99.90
52181;DHT22;38158;53.338;6.514;2023-12-28T05:59:00;9.80;99.90
52181;DHT22;38158;53.338;6.514;2023-12-28T06:01:26;9.90;99.90
52181;DHT22;38158;53.338;6.514;2023-12-28T06:03:52;9.80;99.90
52181;DHT22;38158;53.338;6.514;2023-12-28T06:06:19;9.80;99.90
52181;DHT22;38158;53.338;6.514;2023-12-28T06:08:44;9.70;99.90
52181;DHT22;38158;53.338;6.514;2023-12-28T06:11:10;9.70;99.90
52181;DHT22;38158;53.338;6.514;2023-12-28T06:13:36;9.70;99.90
52181;DHT22;38158;53.338;6.514;2023-12-28T06:16:02;10.10;99.90
52181;DHT22;38158;53.338;6.514;2023-12-28T06:18:27;9.70;99.90
52181;DHT22;38158;53.338;6.514;2023-12-28T06:20:53;9.70;99.90
52181;DHT22;38158;53.338;6.514;2023-12-28T06:23:19;9.80;99.90
52181;DHT22;38158;53.338;6.514;2023-12-28T06:25:45;9.80;99.90
52181;DHT22;38158;53.338;6.514;2023-12-28T06:28:10;9.80;99.90
52181;DHT22;38158;53.338;6.514;2023-12-28T06:30:36;9.80;99.90
52181;DHT22;38158;53.338;6.514;2023-12-28T06:33:02;9.90;99.90
52181;DHT22;38158;53.338;6.514;2023-12-28T06:35:27;10.00;99.90
52181;DHT22;38158;53.338;6.514;2023-12-28T06:37:53;10.00;99.90
52181;DHT22;38158;53.338;6.514;2023-12-28T06:40:19;10.00;99.90
52181;DHT22;38158;53.338;6.514;2023-12-28T06:42:44;10.10;99.90
52181;DHT22;38158;53.338;6.514;2023-12-28T06:45:10;10.00;99.90
52181;DHT22;38158;53.338;6.514;2023-12-28T06:47:36;10.00;99.90
52181;DHT22;38158;53.338;6.514;2023-12-28T06:50:02;10.00;99.90
52181;DHT22;38158;53.338;6.514;2023-12-28T06:52:27;10.00;99.90
52181;DHT22;38158;53.338;6.514;2023-12-28T06:54:53;10.00;99.90
52181;DHT22;38158;53.338;6.514;2023-12-28T06:57:19;9.90;99.90
52181;DHT22;38158;53.338;6.514;2023-12-28T06:59:44;10.00;99.90
52181;DHT22;38158;53.338;6.514;2023-12-28T07:02:10;10.00;99.90
52181;DHT22;38158;53.338;6.514;2023-12-28T07:04:36;10.10;99.90
52181;DHT22;38158;53.338;6.514;2023-12-28T07:07:02;10.00;99.90
52181;DHT22;38158;53.338;6.514;2023-12-28T07:09:27;10.00;99.90
52181;DHT22;38158;53.338;6.514;2023-12-28T07:11:53;10.00;99.90
52181;DHT22;38158;53.338;6.514;2023-12-28T07:14:18;10.10;99.90
52181;DHT22;38158;53.338;6.514;2023-12-28T07:16:44;10.10;99.90
52181;DHT22;38158;53.338;6.514;2023-12-28T07:19:10;10.10;99.90
52181;DHT22;38158;53.338;6.514;2023-12-28T07:21:36;10.20;99.90
52181;DHT22;38158;53.338;6.514;2023-12-28T07:24:02;10.20;99.90
52181;DHT22;38158;53.338;6.514;2023-12-28T07:26:28;10.20;99.90
52181;DHT22;38158;53.338;6.514;2023-12-28T07:28:53;10.20;99.90
52181;DHT22;38158;53.338;6.514;2023-12-28T07:31:27;10.20;99.90
52181;DHT22;38158;53.338;6.514;2023-12-28T07:33:53;10.20;99.90
52181;DHT22;38158;53.338;6.514;2023-12-28T07:36:21;10.20;99.90
52181;DHT22;38158;53.338;6.514;2023-12-28T07:38:47;10.20;99.90
52181;DHT22;38158;53.338;6.514;2023-12-28T07:41:12;10.20;99.90
52181;DHT22;38158;53.338;6.514;2023-12-28T07:43:38;10.40;99.90
52181;DHT22;38158;53.338;6.514;2023-12-28T07:46:04;10.20;99.90
52181;DHT22;38158;53.338;6.514;2023-12-28T07:48:30;10.20;99.90
52181;DHT22;38158;53.338;6.514;2023-12-28T07:51:03;10.20;99.90
52181;DHT22;38158;53.338;6.514;2023-12-28T07:53:29;10.20;99.90
52181;DHT22;38158;53.338;6.514;2023-12-28T07:55:54;10.20;99.90
52181;DHT22;38158;53.338;6.514;2023-12-28T07:58:21;10.20;99.90
52181;DHT22;38158;53.338;6.514;2023-12-28T08:00:47;10.10;99.90
52181;DHT22;38158;53.338;6.514;2023-12-28T08:03:13;10.10;99.90
52181;DHT22;38158;53.338;6.514;2023-12-28T08:05:41;10.10;99.90
52181;DHT22;38158;53.338;6.514;2023-12-28T08:08:06;10.10;99.90
52181;DHT22;38158;53.338;6.514;2023-12-28T08:10:33;10.20;99.90
52181;DHT22;38158;53.338;6.514;2023-12-28T08:12:59;10.20;99.90
52181;DHT22;38158;53.338;6.514;2023-12-28T08:15:24;10.20;99.90
52181;DHT22;38158;53.338;6.514;2023-12-28T08:17:50;10.20;99.90
52181;DHT22;38158;53.338;6.514;2023-12-28T08:20:16;10.20;99.90
52181;DHT22;38158;53.338;6.514;2023-12-28T08:22:42;10.20;99.90
52181;DHT22;38158;53.338;6.514;2023-12-28T08:25:08;10.30;99.90
52181;DHT22;38158;53.338;6.514;2023-12-28T08:27:33;10.20;99.90
52181;DHT22;38158;53.338;6.514;2023-12-28T08:29:59;10.30;99.90
52181;DHT22;38158;53.338;6.514;2023-12-28T08:32:25;10.30;99.90
52181;DHT22;38158;53.338;6.514;2023-12-28T08:34:50;10.40;99.90
52181;DHT22;38158;53.338;6.514;2023-12-28T08:37:16;10.60;99.90
52181;DHT22;38158;53.338;6.514;2023-12-28T08:39:42;10.40;99.90
52181;DHT22;38158;53.338;6.514;2023-12-28T08:42:08;10.40;99.90
52181;DHT22;38158;53.338;6.514;2023-12-28T08:44:33;10.30;99.90
52181;DHT22;38158;53.338;6.514;2023-12-28T08:47:00;10.70;99.90
52181;DHT22;38158;53.338;6.514;2023-12-28T08:49:26;10.40;99.90
52181;DHT22;38158;53.338;6.514;2023-12-28T08:51:51;10.40;99.90
52181;DHT22;38158;53.338;6.514;2023-12-28T08:54:17;10.40;99.90
52181;DHT22;38158;53.338;6.514;2023-12-28T08:56:43;10.40;99.90
52181;DHT22;38158;53.338;6.514;2023-12-28T08:59:09;10.40;99.90
52181;DHT22;38158;53.338;6.514;2023-12-28T09:01:34;10.40;99.90
52181;DHT22;38158;53.338;6.514;2023-12-28T09:04:00;10.40;99.90
52181;DHT22;38158;53.338;6.514;2023-12-28T09:06:26;10.40;99.90
52181;DHT22;38158;53.338;6.514;2023-12-28T09:08:52;10.40;99.90
52181;DHT22;38158;53.338;6.514;2023-12-28T09:11:19;10.40;99.90
52181;DHT22;38158;53.338;6.514;2023-12-28T09:13:45;10.40;99.90
52181;DHT22;38158;53.338;6.514;2023-12-28T09:16:12;10.40;99.90
52181;DHT22;38158;53.338;6.514;2023-12-28T09:18:39;10.40;99.90
52181;DHT22;38158;53.338;6.514;2023-12-28T09:21:06;10.40;99.90
52181;DHT22;38158;53.338;6.514;2023-12-28T09:23:34;10.40;99.90
52181;DHT22;38158;53.338;6.514;2023-12-28T09:26:03;10.40;99.90
52181;DHT22;38158;53.338;6.514;2023-12-28T09:28:30;10.50;99.90
52181;DHT22;38158;53.338;6.514;2023-12-28T09:30:55;10.50;99.90
52181;DHT22;38158;53.338;6.514;2023-12-28T09:33:21;10.50;99.90
52181;DHT22;38158;53.338;6.514;2023-12-28T09:35:47;10.70;99.90
52181;DHT22;38158;53.338;6.514;2023-12-28T09:38:14;10.50;99.90
52181;DHT22;38158;53.338;6.514;2023-12-28T09:40:43;10.60;99.90
52181;DHT22;38158;53.338;6.514;2023-12-28T09:45:47;10.60;99.90
52181;DHT22;38158;53.338;6.514;2023-12-28T09:48:17;10.50;99.90
52181;DHT22;38158;53.338;6.514;2023-12-28T09:50:54;10.50;99.90
52181;DHT22;38158;53.338;6.514;2023-12-28T09:53:24;10.50;99.90
52181;DHT22;38158;53.338;6.514;2023-12-28T09:55:51;10.50;99.90
52181;DHT22;38158;53.338;6.514;2023-12-28T09:58:21;10.50;99.90
52181;DHT22;38158;53.338;6.514;2023-12-28T10:00:49;10.50;99.90
52181;DHT22;38158;53.338;6.514;2023-12-28T10:03:16;10.50;99.90
52181;DHT22;38158;53.338;6.514;2023-12-28T10:05:46;10.50;99.90
52181;DHT22;38158;53.338;6.514;2023-12-28T10:08:13;10.60;99.90
52181;DHT22;38158;53.338;6.514;2023-12-28T10:10:40;10.50;99.90
52181;DHT22;38158;53.338;6.514;2023-12-28T10:13:07;10.50;99.90
52181;DHT22;38158;53.338;6.514;2023-12-28T10:15:34;10.50;99.90
52181;DHT22;38158;53.338;6.514;2023-12-28T10:18:00;10.50;99.90
52181;DHT22;38158;53.338;6.514;2023-12-28T10:20:29;10.50;99.90
52181;DHT22;38158;53.338;6.514;2023-12-28T10:22:54;10.50;99.90
52181;DHT22;38158;53.338;6.514;2023-12-28T10:25:20;10.50;99.90
52181;DHT22;38158;53.338;6.514;2023-12-28T10:27:49;10.60;99.90
52181;DHT22;38158;53.338;6.514;2023-12-28T10:30:15;10.60;99.90
52181;DHT22;38158;53.338;6.514;2023-12-28T10:32:41;10.60;99.90
52181;DHT22;38158;53.338;6.514;2023-12-28T10:35:07;10.50;99.90
52181;DHT22;38158;53.338;6.514;2023-12-28T10:37:33;10.50;99.90
52181;DHT22;38158;53.338;6.514;2023-12-28T10:40:05;10.60;99.90
52181;DHT22;38158;53.338;6.514;2023-12-28T10:42:51;10.50;99.90
52181;DHT22;38158;53.338;6.514;2023-12-28T10:45:18;10.50;99.90
52181;DHT22;38158;53.338;6.514;2023-12-28T10:50:27;10.50;99.90
52181;DHT22;38158;53.338;6.514;2023-12-28T10:53:07;10.60;99.90
52181;DHT22;38158;53.338;6.514;2023-12-28T10:55:51;10.60;99.90
52181;DHT22;38158;53.338;6.514;2023-12-28T10:58:24;10.60;99.90
52181;DHT22;38158;53.338;6.514;2023-12-28T11:00:59;10.90;99.90
52181;DHT22;38158;53.338;6.514;2023-12-28T11:03:34;10.60;99.90
52181;DHT22;38158;53.338;6.514;2023-12-28T11:06:03;10.60;99.90
52181;DHT22;38158;53.338;6.514;2023-12-28T11:08:32;10.60;99.90
52181;DHT22;38158;53.338;6.514;2023-12-28T11:10:59;10.60;99.90
52181;DHT22;38158;53.338;6.514;2023-12-28T11:13:32;10.60;99.90
52181;DHT22;38158;53.338;6.514;2023-12-28T11:15:58;10.60;99.90
52181;DHT22;38158;53.338;6.514;2023-12-28T11:18:25;10.60;99.90
52181;DHT22;38158;53.338;6.514;2023-12-28T11:20:52;10.60;99.90
52181;DHT22;38158;53.338;6.514;2023-12-28T11:23:18;10.60;99.90
52181;DHT22;38158;53.338;6.514;2023-12-28T11:25:43;10.60;99.90
52181;DHT22;38158;53.338;6.514;2023-12-28T11:28:12;10.50;99.90
52181;DHT22;38158;53.338;6.514;2023-12-28T11:30:38;10.50;99.90
52181;DHT22;38158;53.338;6.514;2023-12-28T11:33:04;10.70;99.90
52181;DHT22;38158;53.338;6.514;2023-12-28T11:35:35;10.50;99.90
52181;DHT22;38158;53.338;6.514;2023-12-28T11:38:03;10.60;99.90
52181;DHT22;38158;53.338;6.514;2023-12-28T11:40:40;10.60;99.90
52181;DHT22;38158;53.338;6.514;2023-12-28T11:43:17;10.60;99.90
52181;DHT22;38158;53.338;6.514;2023-12-28T11:45:47;10.60;99.90
52181;DHT22;38158;53.338;6.514;2023-12-28T11:48:25;10.60;99.90
52181;DHT22;38158;53.338;6.514;2023-12-28T11:50:58;10.60;99.90
52181;DHT22;38158;53.338;6.514;2023-12-28T11:53:25;10.60;99.90
52181;DHT22;38158;53.338;6.514;2023-12-28T11:55:51;10.60;99.90
52181;DHT22;38158;53.338;6.514;2023-12-28T11:58:18;10.60;99.90
52181;DHT22;38158;53.338;6.514;2023-12-28T12:00:44;10.50;99.90
52181;DHT22;38158;53.338;6.514;2023-12-28T12:03:10;10.50;99.90
52181;DHT22;38158;53.338;6.514;2023-12-28T12:05:37;10.50;99.90
52181;DHT22;38158;53.338;6.514;2023-12-28T12:08:03;10.50;99.90
52181;DHT22;38158;53.338;6.514;2023-12-28T12:10:29;10.50;99.90
52181;DHT22;38158;53.338;6.514;2023-12-28T12:12:55;10.50;99.90
52181;DHT22;38158;53.338;6.514;2023-12-28T12:15:20;10.50;99.90
52181;DHT22;38158;53.338;6.514;2023-12-28T12:17:46;10.50;99.90
52181;DHT22;38158;53.338;6.514;2023-12-28T12:20:14;10.50;99.90
52181;DHT22;38158;53.338;6.514;2023-12-28T12:22:40;10.50;99.90
52181;DHT22;38158;53.338;6.514;2023-12-28T12:25:06;10.50;99.90
52181;DHT22;38158;53.338;6.514;2023-12-28T12:27:34;10.40;99.90
52181;DHT22;38158;53.338;6.514;2023-12-28T12:29:59;10.50;99.90
52181;DHT22;38158;53.338;6.514;2023-12-28T12:32:26;10.50;99.90
52181;DHT22;38158;53.338;6.514;2023-12-28T12:34:52;10.50;99.90
52181;DHT22;38158;53.338;6.514;2023-12-28T12:37:18;10.50;99.90
52181;DHT22;38158;53.338;6.514;2023-12-28T12:39:44;10.60;99.90
52181;DHT22;38158;53.338;6.514;2023-12-28T12:42:13;10.40;99.90
52181;DHT22;38158;53.338;6.514;2023-12-28T12:44:39;10.50;99.90
52181;DHT22;38158;53.338;6.514;2023-12-28T12:47:06;10.50;99.90
52181;DHT22;38158;53.338;6.514;2023-12-28T12:49:32;10.50;99.90
52181;DHT22;38158;53.338;6.514;2023-12-28T12:51:58;10.50;99.90
52181;DHT22;38158;53.338;6.514;2023-12-28T12:54:24;10.50;99.90
52181;DHT22;38158;53.338;6.514;2023-12-28T12:56:53;10.50;99.90
52181;DHT22;38158;53.338;6.514;2023-12-28T12:59:19;10.60;99.90
52181;DHT22;38158;53.338;6.514;2023-12-28T13:01:46;10.60;99.90
52181;DHT22;38158;53.338;6.514;2023-12-28T13:04:15;10.60;99.90
52181;DHT22;38158;53.338;6.514;2023-12-28T13:06:42;10.60;99.90
52181;DHT22;38158;53.338;6.514;2023-12-28T13:09:07;10.60;99.90
52181;DHT22;38158;53.338;6.514;2023-12-28T13:11:36;10.60;99.90
52181;DHT22;38158;53.338;6.514;2023-12-28T13:14:02;10.60;99.90
52181;DHT22;38158;53.338;6.514;2023-12-28T13:16:27;10.60;99.90
52181;DHT22;38158;53.338;6.514;2023-12-28T13:18:53;10.60;99.90
52181;DHT22;38158;53.338;6.514;2023-12-28T13:21:19;10.60;99.90
52181;DHT22;38158;53.338;6.514;2023-12-28T13:23:45;10.60;99.90
52181;DHT22;38158;53.338;6.514;2023-12-28T13:26:10;10.60;99.90
52181;DHT22;38158;53.338;6.514;2023-12-28T13:28:36;10.60;99.90
52181;DHT22;38158;53.338;6.514;2023-12-28T13:31:02;10.60;99.90
52181;DHT22;38158;53.338;6.514;2023-12-28T13:33:27;10.50;99.90
52181;DHT22;38158;53.338;6.514;2023-12-28T13:35:53;10.50;99.90
52181;DHT22;38158;53.338;6.514;2023-12-28T13:38:19;10.50;99.90
52181;DHT22;38158;53.338;6.514;2023-12-28T13:40:44;10.50;99.90
52181;DHT22;38158;53.338;6.514;2023-12-28T13:43:10;10.50;99.90
52181;DHT22;38158;53.338;6.514;2023-12-28T13:45:36;10.50;99.90
52181;DHT22;38158;53.338;6.514;2023-12-28T13:48:02;10.40;99.90
52181;DHT22;38158;53.338;6.514;2023-12-28T13:50:28;10.40;99.90
52181;DHT22;38158;53.338;6.514;2023-12-28T13:52:54;10.40;99.90
52181;DHT22;38158;53.338;6.514;2023-12-28T13:55:20;10.40;99.90
52181;DHT22;38158;53.338;6.514;2023-12-28T13:57:45;10.40;99.90
52181;DHT22;38158;53.338;6.514;2023-12-28T14:00:11;10.40;99.90
52181;DHT22;38158;53.338;6.514;2023-12-28T14:02:37;10.40;99.90
52181;DHT22;38158;53.338;6.514;2023-12-28T14:05:03;10.40;99.90
52181;DHT22;38158;53.338;6.514;2023-12-28T14:07:29;10.40;99.90
52181;DHT22;38158;53.338;6.514;2023-12-28T14:09:55;10.30;99.90
52181;DHT22;38158;53.338;6.514;2023-12-28T14:12:20;10.30;99.90
52181;DHT22;38158;53.338;6.514;2023-12-28T14:14:46;10.30;99.90
52181;DHT22;38158;53.338;6.514;2023-12-28T14:17:12;10.20;99.90
52181;DHT22;38158;53.338;6.514;2023-12-28T14:19:37;10.20;99.90
52181;DHT22;38158;53.338;6.514;2023-12-28T14:22:03;10.20;99.90
52181;DHT22;38158;53.338;6.514;2023-12-28T14:24:29;10.20;99.90
52181;DHT22;38158;53.338;6.514;2023-12-28T14:26:55;10.20;99.90
52181;DHT22;38158;53.338;6.514;2023-12-28T14:29:22;10.20;99.90
52181;DHT22;38158;53.338;6.514;2023-12-28T14:31:48;10.20;99.90
52181;DHT22;38158;53.338;6.514;2023-12-28T14:34:14;10.20;99.90
52181;DHT22;38158;53.338;6.514;2023-12-28T14:36:40;10.20;99.90
52181;DHT22;38158;53.338;6.514;2023-12-28T14:39:07;10.20;99.90
52181;DHT22;38158;53.338;6.514;2023-12-28T14:41:34;10.20;99.90
52181;DHT22;38158;53.338;6.514;2023-12-28T14:44:00;10.10;99.90
52181;DHT22;38158;53.338;6.514;2023-12-28T14:46:26;10.10;99.90
52181;DHT22;38158;53.338;6.514;2023-12-28T14:48:52;10.10;99.90
52181;DHT22;38158;53.338;6.514;2023-12-28T14:51:18;10.10;99.90
52181;DHT22;38158;53.338;6.514;2023-12-28T14:53:45;10.00;99.90
52181;DHT22;38158;53.338;6.514;2023-12-28T14:56:10;9.90;99.90
52181;DHT22;38158;53.338;6.514;2023-12-28T14:58:38;9.90;99.90
52181;DHT22;38158;53.338;6.514;2023-12-28T15:01:05;9.80;99.90
52181;DHT22;38158;53.338;6.514;2023-12-28T15:03:30;9.70;99.90
52181;DHT22;38158;53.338;6.514;2023-12-28T15:05:56;9.70;99.90
52181;DHT22;38158;53.338;6.514;2023-12-28T15:08:24;9.60;99.90
52181;DHT22;38158;53.338;6.514;2023-12-28T15:10:50;9.60;99.90
52181;DHT22;38158;53.338;6.514;2023-12-28T15:13:16;9.60;99.90
52181;DHT22;38158;53.338;6.514;2023-12-28T15:15:43;9.50;99.90
52181;DHT22;38158;53.338;6.514;2023-12-28T15:18:09;9.50;99.90
52181;DHT22;38158;53.338;6.514;2023-12-28T15:20:35;9.50;99.90
52181;DHT22;38158;53.338;6.514;2023-12-28T15:23:01;9.50;99.90
52181;DHT22;38158;53.338;6.514;2023-12-28T15:25:27;9.40;99.90
52181;DHT22;38158;53.338;6.514;2023-12-28T15:27:54;9.40;99.90
52181;DHT22;38158;53.338;6.514;2023-12-28T15:30:19;9.40;99.90
52181;DHT22;38158;53.338;6.514;2023-12-28T15:32:45;9.40;99.90
52181;DHT22;38158;53.338;6.514;2023-12-28T15:35:14;9.60;99.90
52181;DHT22;38158;53.338;6.514;2023-12-28T15:37:41;9.40;99.90